Time;durP1;ratioP1;P1;durP2;ratioP2;P2;SDS_P1;SDS_P2;PMS_P1;PMS_P2;Temp;Humidity;BMP_temperature;BMP_pressure;BME280_temperature;BME280_humidity;BME280_pressure;Samples;Min_cycle;Max_cycle;Signal;HPM_P1;HPM_P2
2022/11/25 00:00:22;;;;;;;7.33;4.17;;;;;;;5.87;75.63;100274.81;5024411;28;20403;-75
2022/11/25 00:02:48;;;;;;;7.63;4.27;;;;;;;5.88;75.30;100276.47;5029930;28;20415;-75
2022/11/25 00:05:13;;;;;;;10.68;4.40;;;;;;;5.90;75.72;100270.84;5021127;28;20409;-74
2022/11/25 00:07:38;;;;;;;5.93;3.33;;;;;;;5.90;76.08;100273.53;5020243;28;20462;-75
2022/11/25 00:10:05;;;;;;;8.30;3.97;;;;;;;5.89;76.01;100275.44;5020221;28;20488;-75
2022/11/25 00:12:30;;;;;;;6.63;3.60;;;;;;;5.87;76.14;100274.81;5024360;28;20461;-75
2022/11/25 00:14:56;;;;;;;5.80;3.63;;;;;;;5.90;75.93;100274.38;5026879;28;20413;-75
2022/11/25 00:17:21;;;;;;;8.23;4.57;;;;;;;5.94;76.00;100272.06;5031511;28;20414;-75
2022/11/25 00:19:47;;;;;;;9.70;4.30;;;;;;;5.97;75.87;100267.06;5021250;28;20508;-75
2022/11/25 00:22:14;;;;;;;10.97;4.60;;;;;;;6.00;76.02;100260.44;5022619;28;20510;-75
2022/11/25 00:24:39;;;;;;;6.57;4.10;;;;;;;6.03;76.30;100271.56;5018317;28;20876;-75
2022/11/25 00:27:05;;;;;;;14.50;7.22;;;;;;;6.05;76.37;100269.50;5027039;28;20754;-75
2022/11/25 00:29:30;;;;;;;16.63;8.30;;;;;;;6.09;76.54;100276.06;5013648;28;20408;-75
2022/11/25 00:31:55;;;;;;;21.80;9.63;;;;;;;6.11;76.48;100275.88;5015356;28;20456;-75
2022/11/25 00:34:21;;;;;;;18.83;7.70;;;;;;;6.10;76.40;100268.81;5030259;28;20423;-75
2022/11/25 00:36:46;;;;;;;11.82;5.82;;;;;;;5.96;77.24;100278.06;5028585;28;20403;-75
2022/11/25 00:39:14;;;;;;;9.90;5.03;;;;;;;5.90;77.44;100268.16;5016821;28;20807;-75
2022/11/25 00:44:37;;;;;;;7.13;3.58;;;;;;;6.00;77.35;100272.00;5017161;28;20930;-75
2022/11/25 00:47:16;;;;;;;5.80;3.60;;;;;;;6.08;77.58;100271.75;5015266;28;20469;-75
2022/11/25 00:49:47;;;;;;;6.07;3.85;;;;;;;6.12;77.15;100272.97;5024186;28;20453;-74
2022/11/25 00:52:18;;;;;;;8.02;3.80;;;;;;;6.15;77.12;100271.69;5019880;28;20492;-75
2022/11/25 00:54:45;;;;;;;8.55;3.92;;;;;;;6.18;77.30;100260.50;5026477;28;20402;-75
2022/11/25 00:57:11;;;;;;;6.43;3.85;;;;;;;6.18;77.21;100263.19;5032638;28;20411;-75
2022/11/25 00:59:36;;;;;;;5.57;3.40;;;;;;;6.16;77.24;100259.88;5026769;28;20419;-75
2022/11/25 01:02:01;;;;;;;8.90;4.43;;;;;;;6.14;77.40;100272.72;5021057;28;20758;-74
2022/11/25 01:04:27;;;;;;;5.43;3.33;;;;;;;5.80;76.93;100273.16;5025774;28;20411;-75
2022/11/25 01:06:53;;;;;;;3.93;2.60;;;;;;;5.76;78.34;100273.63;5024250;28;20418;-74
2022/11/25 01:09:18;;;;;;;5.60;2.85;;;;;;;5.86;77.65;100289.28;5026595;28;20507;-75
2022/11/25 01:11:43;;;;;;;7.30;2.53;;;;;;;5.95;77.61;100284.47;5030776;28;20406;-75
2022/11/25 01:14:09;;;;;;;8.83;3.40;;;;;;;6.00;77.38;100290.00;5023920;28;20464;-75
2022/11/25 01:16:34;;;;;;;5.95;2.85;;;;;;;6.04;77.20;100299.31;5026703;28;20428;-75
2022/11/25 01:19:00;;;;;;;7.03;3.13;;;;;;;6.09;77.08;100302.19;5019117;28;20483;-74
2022/11/25 01:21:28;;;;;;;3.63;2.58;;;;;;;6.08;77.01;100301.34;5026397;28;20498;-75
2022/11/25 01:23:54;;;;;;;4.93;2.72;;;;;;;6.10;76.88;100309.19;5023568;28;20403;-75
2022/11/25 01:26:24;;;;;;;7.75;3.58;;;;;;;6.11;77.41;100308.97;5024722;28;20823;-75
2022/11/25 01:28:55;;;;;;;7.70;4.68;;;;;;;6.16;76.63;100313.69;5022762;28;20422;-75
2022/11/25 01:31:23;;;;;;;9.37;5.30;;;;;;;6.19;76.56;100314.06;5021141;28;20839;-75
2022/11/25 01:33:57;;;;;;;9.38;4.90;;;;;;;6.24;76.75;100316.94;5026459;28;20466;-75
2022/11/25 01:36:23;;;;;;;7.70;5.00;;;;;;;6.27;76.97;100312.97;5022651;28;20888;-75
2022/11/25 01:38:51;;;;;;;8.67;5.00;;;;;;;6.31;77.40;100308.81;5016079;28;20474;-75
2022/11/25 01:41:17;;;;;;;8.68;5.05;;;;;;;6.34;77.32;100311.06;5018841;28;20499;-75
2022/11/25 01:43:43;;;;;;;12.63;6.13;;;;;;;6.38;77.62;100309.56;5028024;28;20445;-74
2022/11/25 01:46:28;;;;;;;13.57;6.47;;;;;;;6.42;77.28;100315.34;5016840;28;20459;-75
2022/11/25 01:48:58;;;;;;;10.17;6.33;;;;;;;6.42;77.86;100310.75;5018340;28;20513;-75
2022/11/25 01:51:31;;;;;;;12.50;7.05;;;;;;;6.43;77.54;100295.44;5019787;28;20497;-75
2022/11/25 01:54:02;;;;;;;15.77;8.30;;;;;;;6.42;77.32;100301.88;5016208;28;20420;-75
2022/11/25 01:56:32;;;;;;;14.70;7.68;;;;;;;6.41;78.10;100314.50;5021857;28;20922;-75
2022/11/25 01:58:58;;;;;;;9.90;6.57;;;;;;;6.41;77.76;100316.38;5018734;28;20409;-75
2022/11/25 02:01:23;;;;;;;10.82;5.75;;;;;;;6.42;77.93;100305.38;5038882;28;20391;-75
2022/11/25 02:03:54;;;;;;;10.07;5.47;;;;;;;6.44;77.95;100300.63;5018014;28;20407;-75
2022/11/25 02:06:27;;;;;;;5.18;3.67;;;;;;;6.39;77.88;100295.06;5024975;28;20399;-76
2022/11/25 02:09:00;;;;;;;7.35;3.65;;;;;;;6.34;78.29;100302.16;5015324;28;20444;-77
2022/11/25 02:11:29;;;;;;;8.60;3.70;;;;;;;6.32;78.08;100306.94;5017970;28;20413;-76
2022/11/25 02:13:56;;;;;;;6.68;3.33;;;;;;;6.30;78.19;100304.47;5024431;28;20416;-76
2022/11/25 02:16:21;;;;;;;11.55;5.18;;;;;;;6.25;78.13;100307.00;5026871;28;20399;-75
2022/11/25 02:18:49;;;;;;;8.67;5.40;;;;;;;6.21;77.90;100301.25;5026970;28;20412;-76
2022/11/25 02:21:20;;;;;;;6.63;2.93;;;;;;;6.16;77.82;100297.53;5021906;28;20404;-77
2022/11/25 02:24:02;;;;;;;6.25;3.95;;;;;;;6.11;77.46;100292.00;5035609;28;20403;-76
2022/11/25 02:26:28;;;;;;;14.02;4.28;;;;;;;6.06;77.76;100287.28;5027894;28;20395;-76
2022/11/25 02:28:53;;;;;;;6.13;3.20;;;;;;;6.06;78.02;100287.28;5025281;28;20917;-76
2022/11/25 02:31:21;;;;;;;2.58;2.30;;;;;;;6.08;77.72;100284.38;5015906;28;20458;-76
2022/11/25 02:33:46;;;;;;;4.75;2.25;;;;;;;6.08;77.37;100284.38;5024468;28;20411;-74
2022/11/25 02:36:14;;;;;;;5.97;3.03;;;;;;;6.07;77.40;100288.94;5018601;28;20397;-77
2022/11/25 02:39:00;;;;;;;5.85;3.60;;;;;;;6.02;77.60;100283.41;5020056;28;20421;-77
2022/11/25 02:41:30;;;;;;;6.68;3.88;;;;;;;6.01;77.78;100272.84;5023254;28;20407;-76
2022/11/25 02:43:55;;;;;;;8.63;5.43;;;;;;;6.05;77.57;100285.66;5030630;28;20902;-76
2022/11/25 02:46:23;;;;;;;9.27;5.07;;;;;;;6.07;78.07;100278.16;5030723;28;20458;-76
2022/11/25 02:48:49;;;;;;;7.13;4.23;;;;;;;6.08;77.83;100271.75;5024269;28;20407;-76
2022/11/25 02:51:18;;;;;;;6.10;3.00;;;;;;;6.11;78.12;100271.31;5023248;28;20412;-76
2022/11/25 02:53:43;;;;;;;8.48;3.28;;;;;;;6.14;77.77;100276.25;5022560;28;20428;-76
2022/11/25 02:56:11;;;;;;;6.50;3.53;;;;;;;6.17;77.64;100274.97;5022926;28;20412;-76
2022/11/25 02:58:37;;;;;;;5.43;2.95;;;;;;;6.14;77.68;100265.50;5021151;28;20425;-76
2022/11/25 03:01:02;;;;;;;6.95;2.90;;;;;;;6.13;77.73;100255.75;5046557;28;20519;-76
2022/11/25 03:03:27;;;;;;;7.90;4.50;;;;;;;6.13;78.09;100247.69;5028731;28;20407;-76
2022/11/25 03:05:53;;;;;;;9.50;4.30;;;;;;;6.13;77.94;100255.75;5029158;28;20398;-76
2022/11/25 03:08:18;;;;;;;6.37;3.67;;;;;;;6.12;77.97;100264.91;5026774;28;20467;-74
2022/11/25 03:10:43;;;;;;;6.17;3.37;;;;;;;6.12;77.81;100269.44;5021162;28;20813;-76
2022/11/25 03:13:09;;;;;;;8.47;3.30;;;;;;;6.09;77.87;100272.59;5020176;28;20420;-76
2022/11/25 03:15:35;;;;;;;9.80;2.53;;;;;;;6.06;78.27;100271.13;5028805;28;20389;-76
2022/11/25 03:18:02;;;;;;;6.68;3.10;;;;;;;6.07;78.19;100269.28;5030309;28;20476;-76
2022/11/25 03:20:28;;;;;;;3.75;2.65;;;;;;;6.08;78.18;100266.38;5031983;28;20403;-77
2022/11/25 03:22:53;;;;;;;5.75;2.65;;;;;;;6.10;78.29;100276.91;5031694;28;20379;-76
2022/11/25 03:25:19;;;;;;;8.87;2.80;;;;;;;6.11;78.45;100255.16;5030156;28;20498;-76
2022/11/25 03:27:45;;;;;;;5.68;2.80;;;;;;;6.12;78.10;100266.75;5032713;28;20716;-76
2022/11/25 03:30:21;;;;;;;5.82;2.85;;;;;;;6.12;78.29;100264.06;5025066;28;20403;-76
2022/11/25 03:32:47;;;;;;;9.15;3.28;;;;;;;6.14;78.36;100270.03;5032435;28;20473;-76
2022/11/25 03:35:13;;;;;;;8.67;2.60;;;;;;;6.14;78.13;100264.66;5028191;28;20411;-76
2022/11/25 03:37:39;;;;;;;10.60;3.63;;;;;;;6.13;78.49;100269.22;5032241;28;20422;-76
2022/11/25 03:40:06;;;;;;;7.80;4.17;;;;;;;6.14;78.18;100270.03;5018499;28;20486;-76
2022/11/25 03:42:31;;;;;;;7.45;3.45;;;;;;;6.13;78.73;100265.69;5016626;28;20405;-76
2022/11/25 03:44:57;;;;;;;6.67;3.20;;;;;;;6.09;78.78;100265.31;5013782;28;20421;-76
2022/11/25 03:47:22;;;;;;;10.70;4.57;;;;;;;6.08;78.65;100263.69;5025216;28;20510;-76
2022/11/25 03:49:47;;;;;;;11.32;4.68;;;;;;;6.07;78.33;100267.41;5018628;28;20387;-76
2022/11/25 03:52:13;;;;;;;6.57;3.80;;;;;;;6.07;78.70;100263.88;5022917;28;20572;-76
2022/11/25 03:54:38;;;;;;;9.43;4.03;;;;;;;6.05;78.82;100257.91;5021493;28;20483;-76
2022/11/25 03:57:03;;;;;;;9.17;4.70;;;;;;;6.04;78.94;100253.56;5031274;28;20418;-76
2022/11/25 03:59:29;;;;;;;8.00;4.17;;;;;;;6.05;78.67;100253.38;5031927;28;20933;-76
2022/11/25 04:01:54;;;;;;;9.20;3.38;;;;;;;6.03;78.68;100260.81;5032064;28;20890;-76
2022/11/25 04:04:19;;;;;;;7.13;3.07;;;;;;;6.00;78.66;100255.03;5019192;28;20432;-76
2022/11/25 04:06:45;;;;;;;6.47;3.20;;;;;;;5.97;78.80;100242.88;5022176;28;20420;-76
2022/11/25 04:09:13;;;;;;;4.33;2.60;;;;;;;5.98;78.60;100244.53;5023444;28;20399;-76
2022/11/25 04:14:22;;;;;;;3.45;2.63;;;;;;;5.93;78.41;100244.34;5008856;28;20447;-76
2022/11/25 04:16:48;;;;;;;2.87;2.67;;;;;;;5.92;78.82;100249.97;5012107;28;20397;-76
2022/11/25 04:19:13;;;;;;;2.97;2.47;;;;;;;5.92;78.73;100250.78;5009269;28;20507;-76
2022/11/25 04:21:38;;;;;;;2.47;2.17;;;;;;;5.89;78.39;100247.72;5003721;28;20400;-76
2022/11/25 04:24:04;;;;;;;4.80;2.27;;;;;;;5.86;78.69;100243.56;5004594;28;20401;-76
2022/11/25 04:26:29;;;;;;;5.40;3.10;;;;;;;5.86;78.60;100232.03;4997657;28;20406;-76
2022/11/25 04:28:55;;;;;;;4.05;2.08;;;;;;;5.85;78.26;100231.16;4999318;28;20406;-76
2022/11/25 04:31:20;;;;;;;7.20;3.23;;;;;;;5.84;77.99;100229.50;5001555;28;20405;-76
2022/11/25 04:33:45;;;;;;;6.77;3.27;;;;;;;5.80;78.43;100233.66;5005004;28;20413;-76
2022/11/25 04:36:10;;;;;;;7.15;2.80;;;;;;;5.82;78.60;100236.97;5008039;28;20480;-76
2022/11/25 04:38:36;;;;;;;5.90;2.20;;;;;;;5.80;78.31;100230.97;5006283;28;20405;-76
2022/11/25 04:41:01;;;;;;;5.57;1.93;;;;;;;5.82;78.44;100238.84;5000716;28;20401;-76
2022/11/25 04:43:26;;;;;;;3.80;1.93;;;;;;;5.82;78.27;100230.78;5004399;28;20404;-76
2022/11/25 04:45:52;;;;;;;4.60;1.97;;;;;;;5.80;78.13;100238.22;5010814;28;20423;-76
2022/11/25 04:48:18;;;;;;;2.80;2.00;;;;;;;5.78;77.83;100237.63;5003766;28;20402;-76
2022/11/25 04:50:46;;;;;;;4.07;2.20;;;;;;;5.78;78.06;100240.31;4997649;28;20419;-76
2022/11/25 04:53:11;;;;;;;1.80;1.70;;;;;;;5.78;77.93;100240.31;5000293;28;21004;-75
2022/11/25 04:55:36;;;;;;;3.47;1.97;;;;;;;5.78;78.14;100243.84;5002385;28;20420;-75
2022/11/25 04:58:02;;;;;;;4.37;2.17;;;;;;;5.78;78.08;100251.06;5002937;28;20776;-75
2022/11/25 05:00:27;;;;;;;2.08;1.90;;;;;;;5.77;78.20;100252.94;5005451;28;20503;-75
2022/11/25 05:02:53;;;;;;;4.73;2.77;;;;;;;5.78;78.40;100251.06;5001830;28;20444;-76
2022/11/25 05:05:18;;;;;;;6.80;3.03;;;;;;;5.77;78.53;100258.31;5003210;28;20754;-75
2022/11/25 05:07:44;;;;;;;4.70;2.38;;;;;;;5.75;78.56;100260.41;5006865;28;20415;-76
2022/11/25 05:10:09;;;;;;;4.22;2.63;;;;;;;5.73;78.71;100265.97;5003175;28;20408;-76
2022/11/25 05:12:35;;;;;;;4.37;2.73;;;;;;;5.71;78.82;100275.31;4994462;28;20417;-75
2022/11/25 05:15:00;;;;;;;6.97;3.73;;;;;;;5.68;78.77;100278.44;4998111;28;20420;-75
2022/11/25 05:17:29;;;;;;;5.63;3.50;;;;;;;5.67;79.24;100277.63;4992601;28;20406;-76
2022/11/25 05:19:55;;;;;;;4.93;3.30;;;;;;;5.68;78.76;100276.59;4994196;28;20552;-76
2022/11/25 05:22:23;;;;;;;6.23;4.10;;;;;;;5.68;78.88;100278.44;5005532;28;20582;-76
2022/11/25 05:24:48;;;;;;;5.55;4.00;;;;;;;5.66;78.89;100288.59;5000703;28;22846;-76
2022/11/25 05:27:14;;;;;;;6.77;4.33;;;;;;;5.62;78.93;100288.22;4997082;28;20403;-76
2022/11/25 05:29:40;;;;;;;5.10;4.40;;;;;;;5.64;79.14;100299.56;4993880;28;20414;-75
2022/11/25 05:32:05;;;;;;;8.93;6.00;;;;;;;5.64;78.76;100288.81;4996046;28;20413;-76
2022/11/25 05:34:31;;;;;;;9.50;5.20;;;;;;;5.64;78.92;100287.97;5001572;28;20416;-76
2022/11/25 05:36:57;;;;;;;8.23;5.50;;;;;;;5.64;79.21;100290.66;5003578;28;21078;-75
2022/11/25 05:39:22;;;;;;;8.13;5.43;;;;;;;5.62;79.05;100296.28;4993763;28;20450;-75
2022/11/25 05:41:47;;;;;;;9.13;5.83;;;;;;;5.64;78.91;100298.72;4997412;28;20589;-75
2022/11/25 05:44:13;;;;;;;11.37;5.90;;;;;;;5.52;79.18;100303.97;5001211;28;20427;-75
2022/11/25 05:46:38;;;;;;;9.50;5.80;;;;;;;5.50;79.82;100308.72;4999000;28;20467;-76
2022/11/25 05:49:03;;;;;;;11.27;6.37;;;;;;;5.54;79.65;100315.34;4996957;28;20734;-75
2022/11/25 05:51:29;;;;;;;6.28;5.28;;;;;;;5.57;79.43;100322.97;4996043;28;20415;-76
2022/11/25 05:53:55;;;;;;;6.80;4.90;;;;;;;5.60;79.26;100316.31;4997454;28;20419;-75
2022/11/25 05:56:20;;;;;;;20.77;12.13;;;;;;;5.60;79.40;100317.16;4998516;28;20408;-76
2022/11/25 05:58:46;;;;;;;26.00;17.70;;;;;;;5.61;79.63;100320.66;4998421;28;20863;-75
2022/11/25 06:01:13;;;;;;;11.47;7.87;;;;;;;5.56;79.50;100321.34;4998168;28;20401;-75
2022/11/25 06:03:39;;;;;;;7.10;5.30;;;;;;;5.47;79.52;100327.97;4998284;28;20413;-76
2022/11/25 06:06:06;;;;;;;30.45;18.90;;;;;;;5.49;79.40;100331.28;4997850;28;20411;-77
2022/11/25 06:08:32;;;;;;;21.80;13.60;;;;;;;5.53;79.28;100321.75;4993900;28;20845;-76
2022/11/25 06:10:57;;;;;;;23.73;14.00;;;;;;;5.59;78.71;100330.81;5000705;28;20585;-75
2022/11/25 06:13:22;;;;;;;13.53;8.43;;;;;;;5.56;79.01;100334.78;4999830;28;20475;-76
2022/11/25 06:15:48;;;;;;;18.87;8.57;;;;;;;5.60;78.76;100338.66;5000135;28;20421;-76
2022/11/25 06:18:15;;;;;;;9.03;3.40;;;;;;;5.63;78.74;100343.59;4995051;28;20507;-76
2022/11/25 06:20:41;;;;;;;6.47;3.17;;;;;;;5.65;78.78;100348.78;4996738;28;20424;-76
2022/11/25 06:23:06;;;;;;;7.47;3.30;;;;;;;5.66;78.60;100350.44;4998354;28;20884;-77
2022/11/25 06:25:32;;;;;;;5.40;3.00;;;;;;;5.70;79.07;100348.94;5000634;28;20538;-76
2022/11/25 06:27:58;;;;;;;18.30;9.15;;;;;;;5.77;78.77;100341.66;5009607;28;20431;-76
2022/11/25 06:30:24;;;;;;;16.45;8.75;;;;;;;5.81;78.60;100348.25;5005972;28;20403;-76
2022/11/25 06:32:50;;;;;;;6.47;4.20;;;;;;;5.85;78.82;100344.09;5003485;28;20764;-76
2022/11/25 06:35:15;;;;;;;18.93;10.90;;;;;;;5.88;78.87;100351.78;5000277;28;20446;-76
2022/11/25 06:37:40;;;;;;;13.07;7.57;;;;;;;5.90;78.79;100362.28;5000557;28;20400;-78
2022/11/25 06:40:06;;;;;;;6.20;3.80;;;;;;;5.92;78.88;100363.75;4997425;28;20498;-77
2022/11/25 06:42:32;;;;;;;14.48;6.80;;;;;;;5.95;79.02;100379.44;5006244;28;20407;-75
2022/11/25 06:44:58;;;;;;;23.08;10.65;;;;;;;5.98;79.08;100387.09;5003508;28;20412;-76
2022/11/25 06:47:23;;;;;;;17.65;8.75;;;;;;;5.97;79.12;100377.34;5020296;28;20495;-76
2022/11/25 06:49:48;;;;;;;15.70;8.97;;;;;;;6.03;79.28;100375.66;5010649;28;20389;-75
2022/11/25 06:52:14;;;;;;;19.23;9.57;;;;;;;6.07;79.35;100371.50;5012615;28;20404;-76
2022/11/25 06:54:40;;;;;;;12.73;7.73;;;;;;;6.09;79.55;100372.91;5011219;28;20409;-77
2022/11/25 06:57:10;;;;;;;23.13;13.07;;;;;;;6.13;79.34;100379.53;5004856;28;20963;-76
2022/11/25 06:59:35;;;;;;;9.38;6.53;;;;;;;6.12;79.58;100383.28;4996949;28;20411;-76
2022/11/25 07:02:01;;;;;;;6.55;4.10;;;;;;;6.09;79.91;100375.59;5011272;28;20393;-76
2022/11/25 07:04:26;;;;;;;7.90;4.03;;;;;;;6.07;79.88;100382.25;5005004;28;20405;-76
2022/11/25 07:06:51;;;;;;;14.07;8.67;;;;;;;6.13;79.67;100382.22;5012678;28;20404;-75
2022/11/25 07:09:18;;;;;;;8.93;4.60;;;;;;;6.15;79.94;100390.09;5002140;28;20399;-76
2022/11/25 07:11:44;;;;;;;8.27;4.13;;;;;;;5.97;80.16;100388.13;5010936;28;20512;-76
2022/11/25 07:14:15;;;;;;;3.38;2.38;;;;;;;5.88;80.90;100385.91;5005247;28;20417;-76
2022/11/25 07:16:42;;;;;;;4.32;2.13;;;;;;;5.90;80.53;100378.44;5004301;28;20404;-76
2022/11/25 07:19:10;;;;;;;4.47;2.67;;;;;;;5.86;80.77;100374.56;5001753;28;20484;-76
2022/11/25 07:21:35;;;;;;;6.30;2.60;;;;;;;5.81;80.96;100368.94;5003398;28;20948;-76
2022/11/25 07:24:03;;;;;;;2.73;2.30;;;;;;;5.92;80.83;100371.81;5001532;28;20493;-76
2022/11/25 07:26:31;;;;;;;7.35;2.92;;;;;;;6.02;80.23;100374.03;4998950;28;20408;-76
2022/11/25 07:29:00;;;;;;;3.78;2.13;;;;;;;6.08;80.05;100370.47;5001387;28;20793;-77
2022/11/25 07:31:37;;;;;;;4.05;2.10;;;;;;;6.11;80.40;100375.41;5008863;28;20771;-76
2022/11/25 07:34:18;;;;;;;2.70;1.30;;;;;;;6.17;80.25;100378.06;4999344;28;20428;-76
2022/11/25 07:36:45;;;;;;;3.15;1.70;;;;;;;6.22;80.14;100388.16;5012633;28;20392;-77
2022/11/25 07:39:14;;;;;;;3.08;1.77;;;;;;;6.22;80.31;100397.03;5011710;28;20445;-76
2022/11/25 07:41:40;;;;;;;2.78;1.75;;;;;;;6.28;80.65;100402.63;5008429;28;20434;-77
2022/11/25 07:44:07;;;;;;;3.65;1.55;;;;;;;6.34;80.25;100399.03;4995745;28;20415;-76
2022/11/25 07:46:41;;;;;;;3.47;2.20;;;;;;;6.39;80.18;100410.78;5005044;28;20400;-76
2022/11/25 07:49:12;;;;;;;5.83;2.60;;;;;;;6.46;80.07;100418.81;5009870;28;20542;-76
2022/11/25 07:51:43;;;;;;;6.18;3.53;;;;;;;6.50;80.19;100426.25;4998385;28;20412;-76
2022/11/25 07:54:11;;;;;;;5.68;4.18;;;;;;;6.53;80.35;100415.03;5010230;28;20421;-76
2022/11/25 07:56:40;;;;;;;5.47;3.72;;;;;;;6.57;80.77;100423.50;4999122;28;20404;-77
2022/11/25 07:59:07;;;;;;;6.65;4.63;;;;;;;6.59;80.87;100421.41;4996496;28;20477;-77
2022/11/25 08:01:32;;;;;;;6.60;4.00;;;;;;;6.64;80.53;100424.28;5000908;28;20393;-76
2022/11/25 08:03:57;;;;;;;6.30;4.13;;;;;;;6.70;80.25;100424.22;5010681;28;20795;-76
2022/11/25 08:06:25;;;;;;;5.87;3.90;;;;;;;6.77;80.40;100414.22;5010918;28;21208;-76
2022/11/25 08:08:53;;;;;;;9.60;4.37;;;;;;;6.84;80.37;100422.25;5010190;28;21158;-77
2022/11/25 08:11:24;;;;;;;14.52;5.25;;;;;;;6.90;80.17;100421.34;4993979;28;20402;-76
2022/11/25 08:13:50;;;;;;;6.95;4.25;;;;;;;6.95;80.25;100426.09;5008819;28;20416;-77
2022/11/25 08:16:17;;;;;;;4.43;3.13;;;;;;;6.98;80.52;100431.03;5000947;28;20399;-75
2022/11/25 08:18:43;;;;;;;4.90;3.05;;;;;;;7.01;80.37;100425.19;5001745;28;20908;-77
2022/11/25 08:21:10;;;;;;;3.60;2.50;;;;;;;6.95;80.46;100416.09;4995745;28;20490;-74
2022/11/25 08:23:37;;;;;;;7.55;2.30;;;;;;;7.00;80.71;100415.44;4994373;28;20742;-77
2022/11/25 08:26:09;;;;;;;7.63;4.40;;;;;;;7.02;81.20;100419.56;5021548;28;20391;-74
2022/11/25 08:28:35;;;;;;;7.50;3.75;;;;;;;7.05;81.26;100424.50;5001253;28;20774;-77
2022/11/25 08:31:09;;;;;;;6.13;2.50;;;;;;;7.06;81.15;100426.16;4992173;28;20414;-76
2022/11/25 08:33:34;;;;;;;5.38;2.33;;;;;;;7.09;81.26;100425.72;4990165;28;20434;-77
2022/11/25 08:36:00;;;;;;;5.00;2.30;;;;;;;7.18;80.77;100437.00;4994142;28;20414;-76
2022/11/25 08:38:27;;;;;;;7.50;2.55;;;;;;;7.22;80.96;100427.44;4991297;28;20483;-77
2022/11/25 08:40:52;;;;;;;8.63;3.03;;;;;;;7.27;80.83;100435.69;4995372;28;20469;-77
2022/11/25 08:43:20;;;;;;;9.40;3.95;;;;;;;7.29;81.08;100434.41;4997638;28;20422;-76
2022/11/25 08:45:49;;;;;;;5.05;3.35;;;;;;;7.37;81.11;100441.41;4993648;28;20424;-76
2022/11/25 08:48:16;;;;;;;11.60;5.07;;;;;;;7.41;81.27;100444.47;4995011;28;20491;-76
2022/11/25 08:50:46;;;;;;;7.95;4.82;;;;;;;7.46;80.93;100444.59;4998767;28;20424;-76
2022/11/25 08:53:11;;;;;;;5.72;3.70;;;;;;;7.44;81.12;100441.31;4990336;28;20894;-76
2022/11/25 08:55:37;;;;;;;7.30;3.97;;;;;;;7.43;81.55;100443.19;4992236;28;20415;-76
2022/11/25 08:58:03;;;;;;;8.40;4.63;;;;;;;7.43;81.07;100456.66;4988386;28;20453;-77
2022/11/25 09:00:29;;;;;;;10.93;5.88;;;;;;;7.42;81.03;100462.28;4994475;28;20497;-77
2022/11/25 09:02:54;;;;;;;11.55;6.15;;;;;;;7.45;81.19;100478.81;4989996;28;20440;-76
2022/11/25 09:05:20;;;;;;;14.67;8.33;;;;;;;7.48;81.49;100477.53;4994744;28;20413;-76
2022/11/25 09:07:45;;;;;;;9.43;6.10;;;;;;;7.49;81.51;100484.59;4992178;28;20475;-76
2022/11/25 09:10:16;;;;;;;7.90;4.47;;;;;;;7.47;82.11;100487.53;4989903;28;20412;-76
2022/11/25 09:12:41;;;;;;;8.03;4.67;;;;;;;7.46;82.00;100483.19;4989963;28;20423;-75
2022/11/25 09:15:07;;;;;;;7.07;4.43;;;;;;;7.47;82.21;100498.31;4991519;28;20477;-76
2022/11/25 09:17:36;;;;;;;6.97;4.30;;;;;;;7.48;82.04;100502.66;4998953;28;20602;-75
2022/11/25 09:20:04;;;;;;;8.35;4.65;;;;;;;7.52;81.89;100493.06;4998780;28;20771;-76
2022/11/25 09:22:31;;;;;;;6.80;4.43;;;;;;;7.53;82.63;100494.72;4995394;28;20841;-76
2022/11/25 09:24:56;;;;;;;13.43;6.78;;;;;;;7.56;82.31;100499.66;4993545;28;20906;-75
2022/11/25 09:27:21;;;;;;;9.07;5.53;;;;;;;7.60;82.24;100494.66;4995536;28;20418;-75
2022/11/25 09:29:46;;;;;;;12.07;6.40;;;;;;;7.67;82.33;100498.09;4993764;28;20521;-76
2022/11/25 09:32:12;;;;;;;13.88;6.30;;;;;;;7.75;82.22;100498.63;4993645;28;20878;-75
2022/11/25 09:34:37;;;;;;;8.77;4.87;;;;;;;7.79;82.53;100499.81;4996905;28;20429;-75
2022/11/25 09:37:02;;;;;;;8.27;4.33;;;;;;;7.80;82.56;100506.84;4998523;28;20509;-75
2022/11/25 09:39:29;;;;;;;12.43;4.23;;;;;;;7.82;82.27;100510.16;4998630;28;20445;-76
2022/11/25 09:47:53;;;;;;;4.90;3.65;;;;;;;7.90;82.97;100510.91;4997932;28;20912;-76
2022/11/25 09:50:18;;;;;;;8.40;4.05;;;;;;;7.91;83.04;100517.94;4994802;28;20772;-75
2022/11/25 09:52:56;;;;;;;7.03;3.67;;;;;;;7.96;83.47;100526.19;5014659;28;20396;-76
2022/11/25 09:55:24;;;;;;;8.87;3.77;;;;;;;8.00;82.95;100532.78;5000219;28;20414;-76
2022/11/25 09:58:17;;;;;;;7.85;3.70;;;;;;;8.07;82.83;100533.50;4993791;28;20410;-76
2022/11/25 10:00:46;;;;;;;8.32;4.18;;;;;;;8.12;83.34;100534.50;4993950;28;20476;-76
2022/11/25 10:03:11;;;;;;;9.77;4.70;;;;;;;8.13;82.93;100538.03;4995585;28;20417;-76
2022/11/25 10:05:42;;;;;;;7.70;3.67;;;;;;;8.11;83.19;100532.00;4997844;28;20933;-75
2022/11/25 10:08:22;;;;;;;11.32;4.35;;;;;;;8.14;83.67;100540.47;4993300;28;20414;-75
2022/11/25 10:10:54;;;;;;;10.45;5.13;;;;;;;8.13;83.84;100544.25;4994315;28;20415;-75
2022/11/25 10:13:36;;;;;;;12.73;5.22;;;;;;;8.10;84.01;100541.97;4995305;28;20476;-76
2022/11/25 10:16:06;;;;;;;10.52;5.78;;;;;;;8.12;83.99;100548.00;5001401;28;20422;-75
2022/11/25 10:18:56;;;;;;;11.23;5.70;;;;;;;8.15;83.78;100535.91;5002919;28;20450;-76
2022/11/25 10:21:22;;;;;;;7.32;4.00;;;;;;;8.15;84.45;100541.31;4995315;28;20408;-75
2022/11/25 10:23:47;;;;;;;6.30;3.50;;;;;;;8.13;84.09;100551.53;4991053;28;20421;-75
2022/11/25 10:26:15;;;;;;;7.63;3.63;;;;;;;8.18;84.20;100543.53;5000649;28;20424;-76
2022/11/25 10:28:54;;;;;;;5.68;3.17;;;;;;;8.22;84.00;100553.69;5008351;28;20423;-75
2022/11/25 10:31:34;;;;;;;8.13;4.28;;;;;;;8.20;84.54;100552.25;5007242;28;20421;-75
2022/11/25 10:34:01;;;;;;;11.48;4.18;;;;;;;8.23;84.39;100555.31;4993503;28;20425;-76
2022/11/25 10:36:36;;;;;;;17.52;6.22;;;;;;;8.25;84.23;100563.19;4993073;28;20446;-74
2022/11/25 10:39:06;;;;;;;23.85;8.65;;;;;;;8.27;84.80;100561.06;5000279;28;20414;-74
2022/11/25 10:41:49;;;;;;;29.85;9.88;;;;;;;8.28;84.35;100558.19;4994372;28;20795;-76
2022/11/25 10:44:26;;;;;;;23.57;8.77;;;;;;;8.28;84.84;100562.75;4993280;28;20414;-75
2022/11/25 10:47:13;;;;;;;9.88;4.95;;;;;;;8.28;84.92;100566.28;4995635;28;20412;-75
2022/11/25 10:50:12;;;;;;;12.70;4.68;;;;;;;8.30;84.75;100566.06;4991763;28;20440;-75
2022/11/25 10:53:16;;;;;;;11.65;5.90;;;;;;;8.37;84.73;100569.50;4993148;28;20461;-74
2022/11/25 10:55:58;;;;;;;7.70;4.38;;;;;;;8.38;84.58;100568.44;4992643;28;20429;-76
2022/11/25 10:58:35;;;;;;;11.77;5.18;;;;;;;8.41;84.79;100573.41;4992291;28;20406;-75
2022/11/25 11:01:21;;;;;;;17.13;6.75;;;;;;;8.49;84.77;100573.09;4992559;28;20503;-75
2022/11/25 11:03:52;;;;;;;9.97;5.53;;;;;;;8.53;84.55;100576.97;4994267;28;20563;-75
2022/11/25 11:06:30;;;;;;;11.50;5.45;;;;;;;8.56;84.60;100573.00;4991364;28;20900;-75
2022/11/25 11:08:56;;;;;;;11.23;5.30;;;;;;;8.61;84.63;100578.53;4993949;28;20432;-75
2022/11/25 11:11:23;;;;;;;7.63;4.73;;;;;;;8.66;84.86;100570.56;4991336;28;20411;-75
2022/11/25 11:13:56;;;;;;;11.73;5.25;;;;;;;8.67;84.79;100575.72;4993199;28;20438;-75
2022/11/25 11:16:26;;;;;;;9.32;4.60;;;;;;;8.74;85.22;100575.63;4992046;28;20417;-76
2022/11/25 11:18:54;;;;;;;8.40;4.93;;;;;;;8.82;85.01;100575.31;4997320;28;20519;-75
2022/11/25 11:21:23;;;;;;;12.30;5.35;;;;;;;8.93;84.60;100573.69;4990261;28;20406;-75
2022/11/25 11:23:50;;;;;;;11.00;5.93;;;;;;;9.05;84.70;100574.56;4996158;28;20431;-75
2022/11/25 11:26:31;;;;;;;12.05;5.95;;;;;;;9.11;84.41;100584.44;4993790;28;20996;-74
2022/11/25 11:29:18;;;;;;;11.48;5.97;;;;;;;9.18;84.36;100586.00;4991902;28;20422;-75
2022/11/25 11:31:54;;;;;;;10.23;6.47;;;;;;;9.24;84.52;100579.66;4993646;28;20486;-75
2022/11/25 11:34:41;;;;;;;11.17;5.80;;;;;;;9.29;83.98;100579.75;4991987;28;20492;-75
2022/11/25 11:37:37;;;;;;;10.97;6.07;;;;;;;9.30;84.45;100588.69;4993840;28;20504;-76
2022/11/25 11:40:29;;;;;;;11.47;5.37;;;;;;;9.36;84.31;100587.75;5002571;28;20468;-75
2022/11/25 11:43:30;;;;;;;8.93;4.88;;;;;;;9.42;83.96;100586.81;4992077;28;20421;-75
2022/11/25 11:46:06;;;;;;;13.90;5.10;;;;;;;9.42;84.00;100586.03;4990065;28;20422;-76
2022/11/25 11:48:41;;;;;;;11.65;5.28;;;;;;;9.48;84.21;100587.78;4994182;28;20415;-75